ENSD

Sandane , Anda Airport

Sandane, Norway
METAR ENSD 191450Z VRB02KT 9999 FEW035 SCT042 BKN053 01/M03 Q0995 RMK WIND 1138FT VRB03KT
Observed Flight Rules
Jan-19 @ 14:50 UTC (43 minutes ago) Visual Flight Rules
Wind Visibility Clouds
Variable at 2 knots 10,000+ meters
  • Few at 3,500' AGL
  • Scattered at 4,200' AGL
  • Broken at 5,300' AGL
Temperatures Readings
Current 1°C / 34°F
Dewpoint -3°C / 27°F
Humidity 75%
Altimeter 29.38" Hg
Pressure 995 hPa
Elevation 60
METAR ENSD 191450Z VRB02KT 9999 FEW035 SCT042 BKN053 01/M03 Q0995 RMK WIND 1138FT VRB03KT
Observed Flight Rules
Jan-19 @ 14:50 UTC
(43 minutes ago)
VFR
Wind Visibility
Variable at 2 knots 10,000+ meters
Clouds
  • Few at 3,500' AGL
  • Scattered at 4,200' AGL
  • Broken at 5,300' AGL
Temperature Dewpoint
1°C / 34°F -3°C / 27°F
Humidity Altimeter Pressure
75% 29.38" Hg 995 hPa